aviador You're here:

KMHS Decoded Metar

MOUNT SHASTA in CA, USA
Report Time2017-05-23 19:56:00
UTC Time2017-05-23 20:32:35
Flight Rules vfr VFR
WindCalm
Visibility9999 m
Phenomena:N/A
Clouds:N/A
Expected CloudBase > 10,400 ft AGL from Temp-Dew spread
CeilingNone
Temp32°C (ISA +24)
Dew Point06°C (20% RH)
Heat Index30.0°C
AAT31.1°C
QNH1018 hPa
Density Alt6,217 ft
Elevation3,537 ft
Report Wrong Elevation
Raw Report
METAR KMHS 231956Z AUTO 00000KT 10SM CLR 32/06 A3005 RMK AO2 SLP159
T03220061=

Extra information for KMHS:More info

Metar Taf Metar & Taf Last 4 Metars F.Rules Stats Wind Profile Meteogram Temp Stats Airport Information Weather charts Add Link Nearby VenuesMetar ALERT Operation Metar Decoded Social comments

AIRNAV info for KMHS